createdAt,value
2018-12-07T00:02:25.065Z,10.01
2018-12-07T00:04:50.803Z,10.01
2018-12-07T00:07:17.076Z,10.06
2018-12-07T00:09:42.843Z,10.03
2018-12-07T00:12:08.673Z,10.01
2018-12-07T00:14:35.700Z,10.01
2018-12-07T00:17:01.725Z,10.02
2018-12-07T00:19:28.392Z,10.02
2018-12-07T00:21:54.436Z,10.03
2018-12-07T00:24:20.739Z,10.02
2018-12-07T00:26:47.120Z,10.06
2018-12-07T00:29:13.043Z,10.02
2018-12-07T00:31:38.783Z,10.02
2018-12-07T00:34:04.627Z,10.01
2018-12-07T00:36:30.463Z,10.03
2018-12-07T00:38:56.188Z,10.05
2018-12-07T00:41:21.963Z,10.05
2018-12-07T00:43:47.747Z,10.05
2018-12-07T00:46:13.471Z,10.07
2018-12-07T00:48:39.204Z,10.07
2018-12-07T00:51:05.019Z,10.03
2018-12-07T00:53:30.876Z,10.05
2018-12-07T00:55:56.623Z,10.07
2018-12-07T00:58:22.351Z,10.05
2018-12-07T01:00:48.251Z,10.08
2018-12-07T01:03:13.975Z,10.07
2018-12-07T01:05:39.716Z,10.04
2018-12-07T01:08:05.452Z,10.06
2018-12-07T01:10:31.193Z,10.04
2018-12-07T01:12:56.922Z,10.09
2018-12-07T01:15:22.855Z,10.08
2018-12-07T01:17:48.683Z,10.05
2018-12-07T01:20:14.418Z,10.05
2018-12-07T01:22:40.243Z,10.05
2018-12-07T01:25:06.086Z,10.08
2018-12-07T01:27:31.810Z,10.09
2018-12-07T01:29:57.552Z,10.06
2018-12-07T01:32:23.294Z,10.04
2018-12-07T01:34:49.020Z,10.08
2018-12-07T01:37:14.750Z,10.05
2018-12-07T01:39:40.459Z,10.04
2018-12-07T01:42:06.318Z,10.05
2018-12-07T01:44:32.048Z,10.07
2018-12-07T01:46:57.775Z,10.04
2018-12-07T01:49:23.595Z,10.05
2018-12-07T01:51:49.318Z,10.04
2018-12-07T01:54:15.039Z,10.01
2018-12-07T01:56:40.779Z,10.01
2018-12-07T01:59:06.499Z,10.03
2018-12-07T02:01:39.172Z,10.03
2018-12-07T02:04:04.909Z,10.03
2018-12-07T02:06:30.647Z,10.04
2018-12-07T02:08:56.367Z,10.02
2018-12-07T02:11:22.104Z,10.03
2018-12-07T02:13:47.833Z,10.00
2018-12-07T02:16:13.560Z,10.03
2018-12-07T02:18:39.402Z,10.02
2018-12-07T02:21:05.231Z,10.02
2018-12-07T02:23:31.060Z,9.98
2018-12-07T02:25:56.777Z,10.00
2018-12-07T02:28:22.517Z,10.00
2018-12-07T02:30:48.239Z,9.96
2018-12-07T02:33:13.965Z,9.95
2018-12-07T02:35:39.795Z,9.98
2018-12-07T02:38:05.546Z,10.00
2018-12-07T02:40:31.476Z,9.98
2018-12-07T02:42:57.213Z,9.97
2018-12-07T02:45:23.039Z,9.99
2018-12-07T02:47:48.771Z,9.97
2018-12-07T02:50:14.600Z,10.00
2018-12-07T02:52:40.332Z,10.00
2018-12-07T02:55:06.174Z,9.99
2018-12-07T02:57:32.015Z,9.95
2018-12-07T02:59:57.838Z,9.97
2018-12-07T03:02:23.581Z,10.00
2018-12-07T03:04:49.333Z,9.94
2018-12-07T03:07:15.276Z,9.95
2018-12-07T03:09:40.995Z,9.92
2018-12-07T03:12:06.719Z,9.93
2018-12-07T03:14:32.544Z,9.93
2018-12-07T03:16:58.268Z,9.92
2018-12-07T03:19:24.097Z,9.91
2018-12-07T03:21:49.823Z,9.91
2018-12-07T03:24:15.555Z,9.96
2018-12-07T03:26:41.387Z,9.94
2018-12-07T03:29:07.207Z,9.92
2018-12-07T03:31:33.031Z,9.91
2018-12-07T03:33:58.752Z,9.92
2018-12-07T03:36:24.584Z,9.95
2018-12-07T03:38:50.412Z,9.93
2018-12-07T03:41:16.335Z,9.95
2018-12-07T03:43:42.161Z,9.91
2018-12-07T03:46:07.873Z,9.90
2018-12-07T03:48:33.604Z,9.90
2018-12-07T03:50:59.320Z,9.88
2018-12-07T03:53:25.204Z,9.93
2018-12-07T03:55:50.927Z,9.95
2018-12-07T03:58:16.663Z,9.90
2018-12-07T04:00:42.391Z,9.92
2018-12-07T04:03:08.128Z,9.89
2018-12-07T04:05:33.952Z,9.86
2018-12-07T04:07:59.672Z,9.87
2018-12-07T04:10:25.417Z,9.87
2018-12-07T04:12:51.137Z,9.88
2018-12-07T04:15:17.197Z,9.86
2018-12-07T04:17:42.915Z,9.89
2018-12-07T04:20:08.761Z,9.88
2018-12-07T04:22:34.591Z,9.89
2018-12-07T04:25:00.350Z,9.85
2018-12-07T04:27:26.077Z,9.85
2018-12-07T04:29:55.848Z,9.90
2018-12-07T04:32:21.570Z,9.88
2018-12-07T04:34:48.307Z,9.86
2018-12-07T04:37:14.040Z,9.87
2018-12-07T04:39:39.777Z,9.82
2018-12-07T04:42:05.491Z,9.90
2018-12-07T04:44:38.319Z,9.90
2018-12-07T04:47:04.079Z,9.87
2018-12-07T04:49:29.919Z,9.86
2018-12-07T04:51:55.645Z,9.85
2018-12-07T04:54:21.473Z,9.90
2018-12-07T04:56:47.204Z,9.89
2018-12-07T04:59:12.946Z,9.89
2018-12-07T05:01:38.795Z,9.90
2018-12-07T05:04:04.521Z,9.88
2018-12-07T05:06:30.256Z,9.88
2018-12-07T05:08:56.071Z,9.89
2018-12-07T05:11:21.797Z,9.87
2018-12-07T05:13:47.511Z,9.87
2018-12-07T05:16:13.247Z,9.88
2018-12-07T05:18:38.980Z,9.88
2018-12-07T05:21:04.734Z,9.86
2018-12-07T05:23:30.455Z,9.87
2018-12-07T05:25:56.201Z,9.85
2018-12-07T05:28:22.139Z,9.87
2018-12-07T05:30:47.989Z,9.90
2018-12-07T05:33:13.727Z,9.88
2018-12-07T05:35:39.488Z,9.90
2018-12-07T05:38:05.208Z,9.91
2018-12-07T05:40:31.037Z,9.89
2018-12-07T05:42:56.767Z,9.86
2018-12-07T05:45:22.495Z,9.89
2018-12-07T05:47:48.235Z,9.91
2018-12-07T05:50:13.953Z,9.90
2018-12-07T05:52:39.687Z,9.89
2018-12-07T05:55:05.611Z,9.90
2018-12-07T05:57:31.340Z,9.92
2018-12-07T05:59:57.179Z,9.91
2018-12-07T06:02:23.024Z,9.94
2018-12-07T06:04:48.742Z,9.94
2018-12-07T06:07:14.467Z,9.93
2018-12-07T06:09:40.286Z,9.96
2018-12-07T06:12:06.016Z,9.97
2018-12-07T06:14:31.836Z,9.95
2018-12-07T06:16:57.563Z,9.96
2018-12-07T06:19:23.400Z,9.96
2018-12-07T06:21:49.139Z,9.98
2018-12-07T06:24:14.876Z,9.99
2018-12-07T06:26:40.611Z,9.97
2018-12-07T06:29:06.338Z,10.02
2018-12-07T06:31:32.167Z,9.99
2018-12-07T06:33:57.900Z,10.02
2018-12-07T06:36:23.721Z,10.04
2018-12-07T06:38:49.467Z,10.05
2018-12-07T06:41:15.422Z,10.05
2018-12-07T06:43:41.152Z,10.04
2018-12-07T06:46:06.979Z,10.07
2018-12-07T06:48:32.816Z,10.10
2018-12-07T06:50:58.647Z,10.09
2018-12-07T06:53:24.562Z,10.06
2018-12-07T06:55:50.283Z,10.07
2018-12-07T06:58:16.119Z,10.09
2018-12-07T07:00:41.877Z,10.10
2018-12-07T07:03:07.628Z,10.11
2018-12-07T07:05:33.346Z,10.12
2018-12-07T07:07:59.067Z,10.12
2018-12-07T07:10:24.817Z,10.11
2018-12-07T07:12:50.548Z,10.16
2018-12-07T07:15:16.275Z,10.15
2018-12-07T07:17:42.004Z,10.18
2018-12-07T07:20:07.847Z,10.19
2018-12-07T07:22:33.575Z,10.18
2018-12-07T07:24:59.419Z,10.19
2018-12-07T07:27:25.258Z,10.22
2018-12-07T07:29:51.095Z,10.21
2018-12-07T07:32:16.928Z,10.24
2018-12-07T07:34:42.761Z,10.24
2018-12-07T07:37:08.578Z,10.25
2018-12-07T07:39:34.417Z,10.28
2018-12-07T07:42:00.167Z,10.28
2018-12-07T07:44:25.903Z,10.25
2018-12-07T07:46:51.944Z,10.28
2018-12-07T07:49:17.688Z,10.34
2018-12-07T07:51:43.509Z,10.34
2018-12-07T07:54:09.251Z,10.31
2018-12-07T07:56:35.385Z,10.33
2018-12-07T07:59:01.120Z,10.33
2018-12-07T08:01:26.971Z,10.33
2018-12-07T08:03:52.815Z,10.34
2018-12-07T08:06:18.651Z,10.35
2018-12-07T08:08:44.477Z,10.35
2018-12-07T08:11:10.224Z,10.38
2018-12-07T08:13:36.043Z,10.36
2018-12-07T08:16:01.994Z,10.35
2018-12-07T08:18:27.724Z,10.39
2018-12-07T08:20:53.463Z,10.41
2018-12-07T08:23:19.847Z,10.42
2018-12-07T08:25:45.701Z,10.41
2018-12-07T08:28:11.431Z,10.43
2018-12-07T08:30:37.259Z,10.44
2018-12-07T08:33:03.094Z,10.46
2018-12-07T08:35:28.833Z,10.49
2018-12-07T08:37:54.576Z,10.47
2018-12-07T08:40:20.324Z,10.47
2018-12-07T08:42:46.039Z,10.46
2018-12-07T08:45:11.910Z,10.47
2018-12-07T08:47:37.751Z,10.46
2018-12-07T08:50:04.791Z,10.47
2018-12-07T08:52:30.632Z,10.47
2018-12-07T08:54:56.353Z,10.47
2018-12-07T08:57:22.079Z,10.47
2018-12-07T08:59:47.902Z,10.46
2018-12-07T09:02:13.647Z,10.49
2018-12-07T09:04:39.375Z,10.49
2018-12-07T09:07:05.121Z,10.48
2018-12-07T09:09:30.874Z,10.47
2018-12-07T09:11:56.603Z,10.47
2018-12-07T09:14:22.338Z,10.47
2018-12-07T09:16:48.179Z,10.49
2018-12-07T09:19:13.903Z,10.46
2018-12-07T09:21:39.732Z,10.43
2018-12-07T09:24:05.455Z,10.48
2018-12-07T09:26:31.198Z,10.47
2018-12-07T09:28:56.915Z,10.44
2018-12-07T09:31:22.737Z,10.45
2018-12-07T09:33:48.471Z,10.44
2018-12-07T09:36:14.311Z,10.44
2018-12-07T09:38:40.048Z,10.48
2018-12-07T09:41:05.783Z,10.50
2018-12-07T09:43:31.528Z,10.51
2018-12-07T09:45:57.254Z,10.48
2018-12-07T09:48:22.994Z,10.53
2018-12-07T09:50:48.715Z,10.54
2018-12-07T09:53:14.443Z,10.49
2018-12-07T09:55:40.264Z,10.54
2018-12-07T09:58:05.995Z,10.55
2018-12-07T10:00:31.723Z,10.57
2018-12-07T10:02:57.461Z,10.55
2018-12-07T10:05:23.195Z,10.57
2018-12-07T10:07:48.924Z,10.52
2018-12-07T10:10:14.656Z,10.54
2018-12-07T10:12:40.395Z,10.53
2018-12-07T10:15:06.253Z,10.53
2018-12-07T10:17:32.088Z,10.52
2018-12-07T10:19:57.827Z,10.51
2018-12-07T10:22:23.555Z,10.53
2018-12-07T10:24:49.388Z,10.55
2018-12-07T10:27:15.133Z,10.52
2018-12-07T10:29:40.967Z,10.54
2018-12-07T10:32:06.705Z,10.53
2018-12-07T10:34:32.472Z,10.54
2018-12-07T10:36:58.211Z,10.55
2018-12-07T10:39:23.939Z,10.56
2018-12-07T10:41:56.936Z,10.56
2018-12-07T10:44:23.189Z,10.57
2018-12-07T10:46:49.584Z,10.57
2018-12-07T10:49:16.512Z,10.54
2018-12-07T10:51:42.944Z,10.59
2018-12-07T10:54:09.661Z,10.58
2018-12-07T10:56:36.257Z,10.55
2018-12-07T10:59:02.914Z,10.56
2018-12-07T11:01:34.934Z,10.57
2018-12-07T11:04:07.765Z,10.57
2018-12-07T11:06:40.185Z,10.55
2018-12-07T11:09:12.341Z,10.55
2018-12-07T11:11:40.227Z,10.55
2018-12-07T11:14:11.394Z,10.52
2018-12-07T11:16:43.588Z,10.56
2018-12-07T11:19:16.057Z,10.56
2018-12-07T11:21:48.522Z,10.54
2018-12-07T11:24:20.860Z,10.55
2018-12-07T11:29:56.488Z,10.55
2018-12-07T11:32:24.247Z,10.56
2018-12-07T11:34:51.897Z,10.55
2018-12-07T11:37:17.643Z,10.56
2018-12-07T11:39:43.504Z,10.58
2018-12-07T11:42:09.332Z,10.53
2018-12-07T11:44:36.586Z,10.59
2018-12-07T11:47:02.538Z,10.56
2018-12-07T11:49:30.283Z,10.55
2018-12-07T11:51:56.332Z,10.55
2018-12-07T11:54:22.179Z,10.54
2018-12-07T11:56:47.903Z,10.56
2018-12-07T11:59:13.734Z,10.55
2018-12-07T12:01:44.727Z,10.53
2018-12-07T12:04:07.235Z,10.54
2018-12-07T12:06:33.056Z,10.53
2018-12-07T12:08:58.895Z,10.55
2018-12-07T12:11:24.830Z,10.55
2018-12-07T12:13:50.572Z,10.53
2018-12-07T12:16:16.430Z,10.56
2018-12-07T12:18:42.224Z,10.56
2018-12-07T12:21:07.951Z,10.55
2018-12-07T12:23:33.755Z,10.54
2018-12-07T12:25:59.619Z,10.54
2018-12-07T12:28:25.347Z,10.54
2018-12-07T12:30:51.590Z,10.53
2018-12-07T12:33:17.336Z,10.53
2018-12-07T12:35:43.164Z,10.53
2018-12-07T12:38:08.907Z,10.55
2018-12-07T12:40:34.736Z,10.54
2018-12-07T12:43:07.419Z,10.58
2018-12-07T12:45:33.157Z,10.58
2018-12-07T12:47:59.019Z,10.57
2018-12-07T12:50:30.939Z,10.57
2018-12-07T12:52:56.791Z,10.55
2018-12-07T12:55:22.618Z,10.56
2018-12-07T12:57:48.343Z,10.56
2018-12-07T13:00:14.183Z,10.54
2018-12-07T13:02:39.923Z,10.57
2018-12-07T13:05:05.767Z,10.54
2018-12-07T13:07:31.516Z,10.52
2018-12-07T13:09:57.251Z,10.54
2018-12-07T13:12:22.990Z,10.51
2018-12-07T13:14:48.841Z,10.51
2018-12-07T13:17:14.551Z,10.49
2018-12-07T13:19:40.283Z,10.51
2018-12-07T13:22:06.015Z,10.49
2018-12-07T13:24:31.770Z,10.50
2018-12-07T13:26:57.592Z,10.46
2018-12-07T13:29:23.330Z,10.49
2018-12-07T13:31:49.069Z,10.46
2018-12-07T13:34:14.794Z,10.48
2018-12-07T13:36:40.506Z,10.50
2018-12-07T13:39:06.667Z,10.51
2018-12-07T13:41:32.408Z,10.47
2018-12-07T13:43:58.277Z,10.47
2018-12-07T13:46:24.327Z,10.52
2018-12-07T13:48:50.334Z,10.46
2018-12-07T13:51:16.202Z,10.46
2018-12-07T13:53:42.112Z,10.49
2018-12-07T13:56:08.014Z,10.49
2018-12-07T13:58:33.939Z,10.47
2018-12-07T14:00:59.837Z,10.48
2018-12-07T14:03:25.835Z,10.47
2018-12-07T14:05:51.838Z,10.46
2018-12-07T14:08:18.832Z,10.45
2018-12-07T14:10:44.828Z,10.46
2018-12-07T14:13:10.793Z,10.46
2018-12-07T14:15:36.577Z,10.45
2018-12-07T14:18:02.433Z,10.47
2018-12-07T14:20:28.403Z,10.47
2018-12-07T14:22:54.211Z,10.47
2018-12-07T14:25:20.075Z,10.44
2018-12-07T14:27:46.032Z,10.48
2018-12-07T14:30:12.136Z,10.49
2018-12-07T14:32:38.237Z,10.48
2018-12-07T14:35:04.490Z,10.46
2018-12-07T14:37:30.303Z,10.47
2018-12-07T14:39:56.315Z,10.45
2018-12-07T14:42:22.183Z,10.45
2018-12-07T14:44:48.002Z,10.43
2018-12-07T14:47:13.936Z,10.39
2018-12-07T14:49:39.788Z,10.41
2018-12-07T14:52:05.630Z,10.43
2018-12-07T14:54:31.547Z,10.42
2018-12-07T14:56:57.432Z,10.42
2018-12-07T14:59:23.268Z,10.41
2018-12-07T15:01:49.052Z,10.44
2018-12-07T15:04:15.312Z,10.37
2018-12-07T15:06:41.403Z,10.38
2018-12-07T15:09:07.577Z,10.39
2018-12-07T15:11:33.496Z,10.37
2018-12-07T15:13:59.504Z,10.37
2018-12-07T15:16:25.344Z,10.32
2018-12-07T15:18:51.374Z,10.33
2018-12-07T15:21:17.460Z,10.35
2018-12-07T15:23:43.356Z,10.28
2018-12-07T15:26:09.189Z,10.30
2018-12-07T15:28:35.142Z,10.29
2018-12-07T15:31:01.033Z,10.29
2018-12-07T15:33:27.126Z,10.28
2018-12-07T15:35:53.088Z,10.25
2018-12-07T15:38:19.048Z,10.29
2018-12-07T15:40:44.894Z,10.26
2018-12-07T15:43:10.796Z,10.25
2018-12-07T15:45:36.713Z,10.25
2018-12-07T15:48:02.628Z,10.23
2018-12-07T15:50:28.718Z,10.25
2018-12-07T15:52:54.794Z,10.23
2018-12-07T15:55:20.747Z,10.25
2018-12-07T15:57:46.643Z,10.26
2018-12-07T16:00:12.488Z,10.27
2018-12-07T16:02:38.356Z,10.29
2018-12-07T16:05:04.983Z,10.28
2018-12-07T16:07:31.103Z,10.31
2018-12-07T16:09:57.086Z,10.28
2018-12-07T16:12:22.963Z,10.23
2018-12-07T16:14:48.950Z,10.25
2018-12-07T16:17:15.019Z,10.23
2018-12-07T16:19:40.963Z,10.24
2018-12-07T16:22:07.314Z,10.23
2018-12-07T16:24:33.338Z,10.19
2018-12-07T16:27:06.331Z,10.19
2018-12-07T16:29:32.122Z,10.17
2018-12-07T16:31:58.125Z,10.18
2018-12-07T16:34:24.146Z,10.14
2018-12-07T16:36:49.922Z,10.15
2018-12-07T16:39:15.897Z,10.17
2018-12-07T16:41:48.971Z,10.10
2018-12-07T16:44:14.842Z,10.10
2018-12-07T16:46:40.909Z,10.11
2018-12-07T16:49:07.055Z,10.12
2018-12-07T16:51:32.870Z,10.10
2018-12-07T16:53:58.753Z,10.04
2018-12-07T16:56:24.889Z,10.02
2018-12-07T16:58:50.870Z,10.04
2018-12-07T17:01:16.870Z,10.07
2018-12-07T17:03:43.044Z,10.07
2018-12-07T17:06:09.196Z,10.06
2018-12-07T17:08:34.971Z,10.05
2018-12-07T17:11:00.711Z,10.05
2018-12-07T17:13:26.609Z,10.05
2018-12-07T17:15:52.513Z,10.06
2018-12-07T17:18:18.343Z,10.03
2018-12-07T17:20:44.241Z,10.05
2018-12-07T17:23:10.204Z,10.04
2018-12-07T17:25:36.028Z,10.05
2018-12-07T17:28:02.145Z,10.04
2018-12-07T17:30:28.097Z,10.04
2018-12-07T17:32:54.044Z,10.01
2018-12-07T17:35:20.039Z,10.01
2018-12-07T17:37:45.926Z,9.98
2018-12-07T17:40:12.011Z,9.99
2018-12-07T17:42:38.077Z,10.00
2018-12-07T17:45:04.649Z,10.01
2018-12-07T17:47:30.702Z,9.97
2018-12-07T17:49:56.677Z,9.97
2018-12-07T17:52:22.459Z,9.94
2018-12-07T17:54:48.511Z,9.93
2018-12-07T17:57:14.382Z,9.95
2018-12-07T17:59:40.210Z,9.89
2018-12-07T18:02:06.148Z,9.92
2018-12-07T18:04:31.887Z,9.92
2018-12-07T18:06:57.763Z,9.92
2018-12-07T18:09:23.807Z,9.90
2018-12-07T18:11:49.695Z,9.86
2018-12-07T18:14:15.865Z,9.86
2018-12-07T18:16:41.904Z,9.87
2018-12-07T18:19:07.840Z,9.90
2018-12-07T18:21:34.146Z,9.89
2018-12-07T18:23:59.951Z,9.85
2018-12-07T18:26:25.827Z,9.83
2018-12-07T18:28:51.822Z,9.80
2018-12-07T18:31:17.875Z,9.82
2018-12-07T18:33:43.750Z,9.82
2018-12-07T18:36:09.833Z,9.76
2018-12-07T18:38:35.664Z,9.75
2018-12-07T18:41:01.542Z,9.76
2018-12-07T18:43:27.546Z,9.78
2018-12-07T18:45:53.366Z,9.75
2018-12-07T18:48:19.337Z,9.73
2018-12-07T18:50:45.247Z,9.75
2018-12-07T18:53:11.000Z,9.75
2018-12-07T18:55:37.050Z,9.76
2018-12-07T18:58:03.070Z,9.74
2018-12-07T19:00:29.022Z,9.74
2018-12-07T19:02:54.934Z,9.78
2018-12-07T19:05:21.030Z,9.80
2018-12-07T19:07:47.058Z,9.79
2018-12-07T19:10:12.924Z,9.77
2018-12-07T19:12:38.696Z,9.78
2018-12-07T19:15:05.477Z,9.75
2018-12-07T19:17:31.520Z,9.73
2018-12-07T19:19:57.493Z,9.72
2018-12-07T19:22:23.874Z,9.71
2018-12-07T19:24:50.251Z,9.70
2018-12-07T19:27:16.570Z,9.70
2018-12-07T19:29:45.559Z,9.70
2018-12-07T19:32:12.012Z,9.72
2018-12-07T19:34:38.275Z,9.69
2018-12-07T19:37:04.690Z,9.67
2018-12-07T19:39:31.873Z,9.65
2018-12-07T19:41:58.018Z,9.65
2018-12-07T19:44:24.127Z,9.66
2018-12-07T19:46:55.968Z,9.62
2018-12-07T19:49:23.269Z,9.62
2018-12-07T19:51:52.427Z,9.64
2018-12-07T19:54:18.321Z,9.63
2018-12-07T19:56:44.855Z,9.60
2018-12-07T19:59:11.196Z,9.61
2018-12-07T20:01:37.052Z,9.59
2018-12-07T20:04:11.482Z,9.56
2018-12-07T20:06:40.226Z,9.57
2018-12-07T20:09:07.873Z,9.52
2018-12-07T20:11:35.270Z,9.58
2018-12-07T20:14:03.710Z,9.55
2018-12-07T20:16:30.246Z,9.57
2018-12-07T20:18:57.161Z,9.47
2018-12-07T20:21:29.138Z,9.35
2018-12-07T20:24:00.028Z,9.05
2018-12-07T20:26:28.114Z,8.88
2018-12-07T20:28:55.430Z,8.52
2018-12-07T20:31:29.075Z,8.20
2018-12-07T20:33:56.579Z,7.95
2018-12-07T20:36:23.437Z,7.79
2018-12-07T20:38:49.572Z,7.71
2018-12-07T20:41:16.456Z,7.63
2018-12-07T20:43:44.418Z,7.58
2018-12-07T20:46:10.764Z,7.53
2018-12-07T20:48:37.397Z,7.50
2018-12-07T20:51:06.235Z,7.45
2018-12-07T20:53:32.935Z,7.42
2018-12-07T20:55:59.301Z,7.30
2018-12-07T20:58:28.972Z,7.27
2018-12-07T21:00:59.194Z,7.30
2018-12-07T21:03:27.682Z,7.31
2018-12-07T21:09:22.860Z,7.19
2018-12-07T21:11:53.677Z,7.19
2018-12-07T21:14:24.531Z,7.15
2018-12-07T21:17:06.109Z,7.14
2018-12-07T21:19:36.161Z,7.04
2018-12-07T21:22:06.881Z,7.05
2018-12-07T21:24:33.714Z,6.96
2018-12-07T21:27:00.003Z,6.93
2018-12-07T21:29:28.831Z,6.89
2018-12-07T21:31:58.085Z,6.84
2018-12-07T21:37:26.137Z,6.81
2018-12-07T21:39:55.467Z,6.78
2018-12-07T21:42:21.362Z,6.81
2018-12-07T21:44:47.908Z,6.79
2018-12-07T21:47:14.423Z,6.73
2018-12-07T21:49:40.694Z,6.66
2018-12-07T21:52:12.383Z,6.62
2018-12-07T21:54:39.933Z,6.61
2018-12-07T21:57:07.081Z,6.63
2018-12-07T21:59:34.877Z,6.58
2018-12-07T22:02:06.119Z,6.60
2018-12-07T22:04:33.418Z,6.59
2018-12-07T22:07:04.065Z,6.62
2018-12-07T22:09:32.422Z,6.51
2018-12-07T22:12:00.147Z,6.48
2018-12-07T22:14:29.360Z,6.52
2018-12-07T22:16:56.954Z,6.44
2018-12-07T22:19:25.495Z,6.44
2018-12-07T22:21:51.781Z,6.37
2018-12-07T22:24:17.744Z,6.41
2018-12-07T22:26:44.587Z,6.38
2018-12-07T22:29:17.932Z,6.37
2018-12-07T22:31:44.499Z,6.38
2018-12-07T22:34:12.627Z,6.32
2018-12-07T22:36:39.379Z,6.34
2018-12-07T22:39:06.072Z,6.21
2018-12-07T22:41:33.046Z,6.17
2018-12-07T22:44:01.648Z,6.15
2018-12-07T22:46:29.876Z,6.20
2018-12-07T22:48:56.104Z,6.16
2018-12-07T22:51:24.458Z,6.15
2018-12-07T22:53:52.253Z,6.17
2018-12-07T22:56:19.378Z,6.10
2018-12-07T22:58:45.108Z,6.03
2018-12-07T23:01:10.982Z,5.99
2018-12-07T23:03:36.831Z,5.92
2018-12-07T23:06:02.765Z,5.88
2018-12-07T23:08:35.443Z,5.80
2018-12-07T23:11:01.304Z,5.86
2018-12-07T23:13:27.742Z,5.79
2018-12-07T23:15:54.964Z,5.77
2018-12-07T23:18:22.893Z,5.83
2018-12-07T23:20:49.251Z,5.80
2018-12-07T23:23:16.558Z,5.78
2018-12-07T23:25:43.061Z,5.79
2018-12-07T23:28:08.805Z,5.86
2018-12-07T23:30:34.535Z,5.88
2018-12-07T23:33:00.690Z,5.94
2018-12-07T23:35:26.547Z,5.88
2018-12-07T23:37:52.643Z,5.90
2018-12-07T23:40:18.487Z,5.97
2018-12-07T23:42:44.320Z,5.97
2018-12-07T23:45:10.309Z,5.86
2018-12-07T23:47:37.420Z,5.84
2018-12-07T23:50:05.320Z,5.88
2018-12-07T23:52:31.052Z,5.90
2018-12-07T23:54:56.769Z,5.94
2018-12-07T23:57:24.348Z,5.97
2018-12-07T23:59:50.162Z,5.98
